Terminal Aerodrome Forecast
Issued by NWS

Current Version | Previous Version | Graphics & Text | Print | Product List | Glossary On
Versions: 1 2 3 4 5 6 7 8 9 10 11 12 13 14 15 16 17 18 19
000
FTUS41 KRNK 291735
TAFLWB
TAF
KLWB 291735Z 2918/3018 29006KT P6SM BKN080
     FM292300 30002KT P6SM BKN025
     FM301200 31003KT P6SM OVC035=

USA.gov is the U.S. government's official web portal to all federal, state and local government web resources and services.